Time;durP1;ratioP1;P1;durP2;ratioP2;P2;SDS_P1;SDS_P2;PMS_P1;PMS_P2;Temp;Humidity;BMP_temperature;BMP_pressure;BME280_temperature;BME280_humidity;BME280_pressure;Samples;Min_cycle;Max_cycle;Signal;HPM_P1;HPM_P2
2022/11/21 00:01:53;;;;;;;0.60;0.60;;;;;3.60;95158.00;;;;5093738;28;20247;-56
2022/11/21 00:04:22;;;;;;;0.70;0.70;;;;;3.60;95150.00;;;;5093433;28;20281;-56
2022/11/21 00:06:50;;;;;;;0.60;0.60;;;;;3.70;95153.00;;;;5093752;28;20542;-56
2022/11/21 00:09:17;;;;;;;0.60;0.60;;;;;3.70;95146.00;;;;5093414;28;20284;-56
2022/11/21 00:11:44;;;;;;;0.53;0.53;;;;;3.70;95147.00;;;;5094292;28;20580;-56
2022/11/21 00:14:11;;;;;;;0.60;0.60;;;;;3.70;95146.00;;;;5079019;28;20593;-56
2022/11/21 00:16:38;;;;;;;0.50;0.50;;;;;3.70;95152.00;;;;5096952;28;20229;-56
2022/11/21 00:19:05;;;;;;;0.60;0.60;;;;;3.50;95140.00;;;;5096883;28;20214;-58
2022/11/21 00:21:31;;;;;;;0.70;0.70;;;;;3.50;95131.00;;;;5096845;28;20226;-56
2022/11/21 00:23:58;;;;;;;0.60;0.60;;;4.30;99.90;3.40;95128.00;;;;5097059;28;20560;-56
2022/11/21 00:26:24;;;;;;;0.60;0.60;;;4.30;99.90;3.40;95125.00;;;;5097266;28;20206;-56
2022/11/21 00:28:51;;;;;;;0.60;0.60;;;4.20;99.90;3.30;95124.00;;;;5096026;28;20205;-56
2022/11/21 00:31:22;;;;;;;0.57;0.57;;;4.10;99.90;3.20;95126.00;;;;5096725;28;20271;-58
2022/11/21 00:33:49;;;;;;;0.70;0.70;;;4.10;99.90;3.30;95117.00;;;;5096875;28;20228;-56
2022/11/21 00:36:16;;;;;;;0.83;0.83;;;4.10;99.90;3.30;95109.00;;;;5097104;28;20203;-56
2022/11/21 00:38:42;;;;;;;1.17;1.13;;;3.90;99.90;3.20;95116.00;;;;5096446;28;20285;-57
2022/11/21 00:41:09;;;;;;;0.50;0.50;;;;;3.10;95115.00;;;;5096701;28;20194;-58
2022/11/21 00:43:35;;;;;;;0.60;0.60;;;;;3.30;95103.00;;;;5096346;28;20209;-57
2022/11/21 00:46:03;;;;;;;0.50;0.50;;;;;3.20;95112.00;;;;5096576;28;20173;-57
2022/11/21 00:48:30;;;;;;;0.60;0.60;;;;;3.30;95117.00;;;;5096430;28;20195;-56
2022/11/21 00:50:59;;;;;;;0.50;0.50;;;;;3.40;95108.00;;;;5096473;28;20261;-58
2022/11/21 00:53:26;;;;;;;0.70;0.70;;;;;3.20;95105.00;;;;5096463;28;20194;-57
2022/11/21 00:55:52;;;;;;;0.53;0.53;;;;;3.30;95107.00;;;;5096559;28;20678;-56
2022/11/21 00:58:19;;;;;;;0.70;0.70;;;;;3.30;95126.00;;;;5096395;28;20232;-56
2022/11/21 01:00:46;;;;;;;0.60;0.60;;;;;3.20;95126.00;;;;5096238;28;20215;-56
2022/11/21 01:03:12;;;;;;;0.60;0.60;;;;;3.00;95129.00;;;;5096294;28;20199;-56
2022/11/21 01:05:39;;;;;;;2.23;0.70;;;;;3.00;95136.00;;;;5096131;28;20190;-56
2022/11/21 01:08:07;;;;;;;0.90;0.90;;;;;3.10;95124.00;;;;5096255;28;20197;-56
2022/11/21 01:10:34;;;;;;;1.47;1.37;;;;;3.30;95122.00;;;;5096112;28;20205;-56
2022/11/21 01:13:01;;;;;;;0.70;0.70;;;;;3.40;95114.00;;;;5078344;28;20246;-56
2022/11/21 01:15:33;;;;;;;0.60;0.60;;;;;3.40;95107.00;;;;5096159;28;20198;-59
2022/11/21 01:18:00;;;;;;;0.83;0.80;;;;;3.40;95103.00;;;;5095625;28;20294;-56
2022/11/21 01:20:27;;;;;;;1.10;1.10;;;;;3.30;95104.00;;;;5095937;28;20194;-56
2022/11/21 01:22:54;;;;;;;0.70;0.70;;;;;3.10;95101.00;;;;5095275;28;20194;-55
2022/11/21 01:25:21;;;;;;;0.60;0.60;;;;;3.20;95102.00;;;;5095504;28;20534;-56
2022/11/21 01:27:48;;;;;;;5.73;1.37;;;;;3.20;95096.00;;;;5095831;28;20210;-57
2022/11/21 01:30:16;;;;;;;0.60;0.60;;;;;3.30;95094.00;;;;5095836;28;20210;-56
2022/11/21 01:32:42;;;;;;;0.60;0.60;;;;;3.20;95098.00;;;;5095862;28;20286;-56
2022/11/21 01:35:12;;;;;;;0.60;0.60;;;;;3.40;95095.00;;;;5095673;28;20291;-56
2022/11/21 01:37:39;;;;;;;0.60;0.60;;;;;3.20;95100.00;;;;5077947;28;20241;-59
2022/11/21 01:40:07;;;;;;;0.60;0.60;;;;;3.20;95097.00;;;;5095727;28;20218;-57
2022/11/21 01:42:53;;;;;;;0.70;0.70;;;;;3.20;95100.00;;;;5096029;28;20206;-58
2022/11/21 01:45:52;;;;;;;0.80;0.80;;;;;3.00;95091.00;;;;5077695;28;20207;-57
2022/11/21 01:48:19;;;;;;;0.60;0.60;;;;;2.90;95097.00;;;;5095606;28;20210;-56
2022/11/21 01:50:48;;;;;;;0.50;0.50;;;;;2.60;95104.00;;;;5095511;28;20201;-57
2022/11/21 01:53:16;;;;;;;0.90;0.90;;;;;2.50;95096.00;;;;5077901;28;20539;-56
2022/11/21 01:55:43;;;;;;;0.60;0.60;;;;;2.50;95092.00;;;;5077452;28;20589;-56
2022/11/21 01:58:13;;;;;;;0.60;0.60;;;;;2.70;95091.00;;;;5077578;28;20361;-57
2022/11/21 02:00:42;;;;;;;0.50;0.50;;;;;2.70;95097.00;;;;5095504;28;20602;-58
2022/11/21 02:03:15;;;;;;;0.93;0.93;;;;;2.70;95081.00;;;;5095316;28;20222;-57
2022/11/21 02:05:44;;;;;;;0.63;0.63;;;;;2.40;95083.00;;;;5077763;28;20217;-57
2022/11/21 02:08:17;;;;;;;0.60;0.60;;;;;2.40;95082.00;;;;5077565;28;20737;-55
2022/11/21 02:10:56;;;;;;;0.60;0.60;;;;;2.40;95090.00;;;;5077448;28;20201;-55
2022/11/21 02:13:24;;;;;;;0.60;0.60;;;;;2.40;95080.00;;;;5095198;28;20591;-55
2022/11/21 02:15:50;;;;;;;0.50;0.50;;;;;2.40;95076.00;;;;5095041;28;20190;-55
2022/11/21 02:18:19;;;;;;;1.27;1.20;;;;;2.50;95077.00;;;;5077335;28;20221;-56
2022/11/21 02:20:52;;;;;;;0.57;0.57;;;;;2.40;95073.00;;;;5094921;28;20228;-56
2022/11/21 02:23:31;;;;;;;0.60;0.60;;;;;2.40;95068.00;;;;5077147;28;20213;-56
2022/11/21 02:26:01;;;;;;;1.07;1.07;;;;;2.40;95069.00;;;;5076925;28;20553;-56
2022/11/21 02:28:28;;;;;;;0.60;0.60;;;;;2.40;95068.00;;;;5094866;28;20202;-56
2022/11/21 02:30:55;;;;;;;0.80;0.80;;;;;2.50;95080.00;;;;5094721;28;20223;-60
2022/11/21 02:33:21;;;;;;;0.60;0.60;;;;;2.40;95073.00;;;;5094954;28;20252;-56
2022/11/21 02:35:57;;;;;;;0.50;0.50;;;;;2.60;95049.00;;;;5094593;28;20207;-56
2022/11/21 02:38:27;;;;;;;0.60;0.60;;;;;2.60;95060.00;;;;5094747;28;20561;-56
2022/11/21 02:41:00;;;;;;;0.60;0.60;;;;;2.60;95042.00;;;;5094673;28;20243;-56
2022/11/21 02:43:31;;;;;;;0.60;0.60;;;;;2.60;95051.00;;;;5094557;28;20229;-56
2022/11/21 02:45:58;;;;;;;0.57;0.57;;;;;2.60;95056.00;;;;5094525;28;20522;-56
2022/11/21 02:48:25;;;;;;;0.90;0.90;;;;;2.60;95056.00;;;;5094407;28;20289;-58
2022/11/21 02:50:54;;;;;;;0.60;0.60;;;;;2.60;95048.00;;;;5094506;28;20291;-56
2022/11/21 02:53:21;;;;;;;0.90;0.90;;;;;2.70;95051.00;;;;5094337;28;20228;-59
2022/11/21 02:55:48;;;;;;;0.57;0.57;;;;;2.70;95043.00;;;;5094450;28;20296;-56
2022/11/21 02:58:15;;;;;;;0.57;0.57;;;;;2.70;95040.00;;;;5094388;28;20229;-56
2022/11/21 03:00:43;;;;;;;0.60;0.60;;;;;2.70;95040.00;;;;5094362;28;20500;-56
2022/11/21 03:03:10;;;;;;;0.50;0.50;;;;;2.70;95048.00;;;;5094243;28;20665;-56
2022/11/21 03:05:40;;;;;;;0.70;0.70;;;;;2.80;95044.00;;;;5094170;28;20222;-60
2022/11/21 03:08:07;;;;;;;0.50;0.50;;;;;2.80;95030.00;;;;5094159;28;20218;-57
2022/11/21 03:10:33;;;;;;;0.60;0.60;;;;;2.90;95031.00;;;;5094148;28;20222;-56
2022/11/21 03:13:00;;;;;;;0.63;0.63;;;;;2.90;95021.00;;;;5094177;28;20214;-56
2022/11/21 03:15:29;;;;;;;0.50;0.50;;;;;2.90;95021.00;;;;5093968;28;20553;-56
2022/11/21 03:18:01;;;;;;;0.53;0.53;;;;;2.90;95010.00;;;;5094035;28;20218;-56
2022/11/21 03:20:29;;;;;;;0.63;0.63;;;;;2.80;95019.00;;;;5094187;28;20215;-56
2022/11/21 03:22:55;;;;;;;9.60;0.83;;;;;2.90;94985.00;;;;5094113;28;20527;-56
2022/11/21 03:25:22;;;;;;;1.07;0.97;;;;;2.90;95029.00;;;;5094350;28;20195;-57
2022/11/21 03:27:51;;;;;;;0.60;0.60;;;;;2.90;95027.00;;;;5093863;28;20229;-56
2022/11/21 03:30:18;;;;;;;0.60;0.60;;;;;2.90;95033.00;;;;5094108;28;20236;-55
2022/11/21 03:32:45;;;;;;;0.63;0.63;;;;;2.90;95033.00;;;;5094087;28;20295;-57
2022/11/21 03:35:13;;;;;;;0.80;0.80;;;;;3.00;95018.00;;;;5094061;28;20323;-57
2022/11/21 03:37:40;;;;;;;1.00;1.00;;;;;3.00;95010.00;;;;5093533;28;20267;-57
2022/11/21 03:40:08;;;;;;;0.60;0.60;;;;;3.10;95018.00;;;;5093674;28;20234;-57
2022/11/21 03:42:35;;;;;;;0.60;0.60;;;;;3.10;95018.00;;;;5093942;28;20190;-56
2022/11/21 03:45:02;;;;;;;0.60;0.60;;;;;3.10;95020.00;;;;5093526;28;20218;-57
2022/11/21 03:47:29;;;;;;;0.60;0.60;;;;;3.10;95008.00;;;;5092806;28;20202;-55
2022/11/21 03:49:55;;;;;;;0.67;0.67;;;;;3.20;95025.00;;;;5093515;28;20554;-57
2022/11/21 03:52:23;;;;;;;0.60;0.60;;;;;3.30;95011.00;;;;5093477;28;20271;-58
2022/11/21 03:54:50;;;;;;;0.60;0.60;;;;;3.20;95011.00;;;;5093462;28;20187;-57
2022/11/21 03:57:19;;;;;;;0.60;0.60;;;;;3.30;95006.00;;;;5093718;28;20206;-56
2022/11/21 03:59:45;;;;;;;0.60;0.60;;;;;3.40;94986.00;;;;5093485;28;20204;-58
2022/11/21 04:02:15;;;;;;;0.60;0.60;;;;;3.50;94988.00;;;;5093323;28;20605;-56
2022/11/21 04:04:44;;;;;;;0.60;0.60;;;;;3.40;94992.00;;;;5093311;28;20206;-57
2022/11/21 04:07:10;;;;;;;0.50;0.50;;;;;3.40;94998.00;;;;5075423;28;20214;-58
2022/11/21 04:09:38;;;;;;;0.60;0.60;;;;;3.40;94994.00;;;;5075661;28;20206;-57
2022/11/21 04:12:05;;;;;;;0.60;0.60;;;;;3.40;94993.00;;;;5093337;28;20650;-56
2022/11/21 04:14:32;;;;;;;0.60;0.60;;;;;3.40;94992.00;;;;5093285;28;20202;-57
2022/11/21 04:16:58;;;;;;;0.60;0.60;;;;;3.40;94990.00;;;;5093271;28;20193;-56
2022/11/21 04:19:25;;;;;;;0.50;0.50;;;;;3.50;95002.00;;;;5075282;28;20581;-56
2022/11/21 04:21:52;;;;;;;0.60;0.60;;;;;3.40;94994.00;;;;5093157;28;20194;-56
2022/11/21 04:24:19;;;;;;;0.60;0.60;;;;;3.40;95000.00;;;;5093152;28;20214;-55
2022/11/21 04:26:46;;;;;;;0.50;0.50;;;;;3.20;94999.00;;;;5093141;28;20190;-57
2022/11/21 04:29:13;;;;;;;0.60;0.60;;;;;3.20;94999.00;;;;5093251;28;20616;-56
2022/11/21 04:31:40;;;;;;;0.60;0.60;;;;;3.20;95001.00;;;;5093010;28;20202;-57
2022/11/21 04:34:06;;;;;;;0.60;0.60;;;;;3.30;95010.00;;;;5093117;28;20191;-57
2022/11/21 04:36:35;;;;;;;0.70;0.70;;;;;3.40;94993.00;;;;5093253;28;20256;-56
2022/11/21 04:39:02;;;;;;;0.60;0.60;;;;;3.30;95005.00;;;;5075081;28;20238;-58
2022/11/21 04:41:31;;;;;;;1.33;1.33;;;;;3.30;94984.00;;;;5093004;28;20234;-57
2022/11/21 04:43:59;;;;;;;0.63;0.63;;;;;3.50;94992.00;;;;5092785;28;20214;-57
2022/11/21 04:46:26;;;;;;;0.80;0.80;;;;;3.50;94987.00;;;;5092864;28;20206;-57
2022/11/21 04:48:52;;;;;;;0.90;0.90;;;;;3.60;94993.00;;;;5092762;28;20226;-57
2022/11/21 04:51:21;;;;;;;1.17;1.17;;;;;3.70;94990.00;;;;5092780;28;20187;-57
2022/11/21 04:53:48;;;;;;;0.80;0.80;;;;;3.90;95009.00;;;;5092684;28;20210;-57
2022/11/21 04:56:15;;;;;;;0.93;0.93;;;;;4.00;94992.00;;;;5092782;28;20527;-57
2022/11/21 04:58:44;;;;;;;0.60;0.60;;;;;4.00;94988.00;;;;5094818;28;20226;-57
2022/11/21 05:01:14;;;;;;;0.73;0.73;;;;;4.00;94987.00;;;;5096158;28;20306;-56
2022/11/21 05:03:40;;;;;;;0.60;0.60;;;;;3.90;94984.00;;;;5078178;28;20230;-57
2022/11/21 05:06:07;;;;;;;0.60;0.60;;;;;4.10;94990.00;;;;5078418;28;20207;-58
2022/11/21 05:08:34;;;;;;;0.60;0.60;;;;;4.10;95012.00;;;;5096243;28;20230;-57
2022/11/21 05:13:46;;;;;;;0.60;0.60;;;;;4.20;95027.00;;;;5077988;28;20276;-59
2022/11/21 05:16:13;;;;;;;0.60;0.60;;;;;4.10;95017.00;;;;5078119;28;20203;-56
2022/11/21 05:18:40;;;;;;;0.60;0.60;;;;;4.00;94998.00;;;;5096114;28;20666;-56
2022/11/21 05:21:07;;;;;;;0.73;0.70;;;;;4.10;95000.00;;;;5096066;28;20627;-56
2022/11/21 05:23:33;;;;;;;0.67;0.67;;;;;4.10;94994.00;;;;5078312;28;20197;-56
2022/11/21 05:26:00;;;;;;;1.13;1.13;;;;;4.10;94985.00;;;;5096236;28;20264;-58
2022/11/21 05:28:29;;;;;;;0.60;0.60;;;;;4.10;94996.00;;;;5078178;28;20199;-63
2022/11/21 05:30:56;;;;;;;0.60;0.60;;;;;4.10;94985.00;;;;5095887;28;20199;-59
2022/11/21 05:33:23;;;;;;;0.60;0.60;;;;;4.20;94993.00;;;;5095908;28;20232;-58
2022/11/21 05:35:50;;;;;;;0.60;0.60;;;;;4.20;94998.00;;;;5095991;28;20192;-58
2022/11/21 05:38:17;;;;;;;0.80;0.80;;;;;4.20;94996.00;;;;5095986;28;20325;-58
2022/11/21 05:40:43;;;;;;;2.50;0.97;;;;;4.10;95001.00;;;;5095792;28;20717;-61
2022/11/21 05:45:58;;;;;;;0.60;0.60;;;;;4.10;95003.00;;;;5095793;28;20290;-60
2022/11/21 05:48:25;;;;;;;0.70;0.70;;;;;4.20;95020.00;;;;5077886;28;20221;-60
2022/11/21 05:50:52;;;;;;;0.60;0.60;;;;;4.10;94996.00;;;;5077997;28;20198;-58
2022/11/21 05:53:19;;;;;;;0.57;0.57;;;;;4.30;95007.00;;;;5095727;28;20186;-58
2022/11/21 05:55:45;;;;;;;2.47;1.03;;;;;4.30;95015.00;;;;5095372;28;20223;-58
2022/11/21 05:58:13;;;;;;;1.57;0.90;;;;;4.30;95009.00;;;;5095340;28;20218;-56
2022/11/21 06:00:40;;;;;;;0.60;0.60;;;;;4.30;94997.00;;;;5095277;28;20249;-59
2022/11/21 06:03:26;;;;;;;0.70;0.70;;;5.20;98.40;4.20;95012.00;;;;5095372;28;20195;-58
2022/11/21 06:05:59;;;;;;;0.70;0.70;;;5.10;99.30;4.30;95006.00;;;;5095429;28;20202;-60
2022/11/21 06:08:26;;;;;;;0.70;0.70;;;5.10;98.10;4.20;95017.00;;;;5094665;28;20214;-59
2022/11/21 06:10:53;;;;;;;1.40;1.30;;;5.00;98.90;4.20;95001.00;;;;5094405;28;20223;-59
2022/11/21 06:13:22;;;;;;;0.63;0.63;;;5.00;99.20;4.20;95005.00;;;;5095216;28;20206;-58
2022/11/21 06:15:52;;;;;;;0.90;0.90;;;5.10;98.50;4.30;95013.00;;;;5095077;28;20670;-62
2022/11/21 06:18:19;;;;;;;0.80;0.80;;;5.10;98.50;4.30;95002.00;;;;5094058;28;20218;-59
2022/11/21 06:20:46;;;;;;;0.60;0.60;;;5.10;96.90;4.20;95008.00;;;;5094881;28;20681;-58
2022/11/21 06:23:13;;;;;;;0.60;0.60;;;5.00;97.50;4.20;95012.00;;;;5094807;28;20650;-61
2022/11/21 06:25:39;;;;;;;0.90;0.90;;;5.00;97.20;4.20;95009.00;;;;5094772;28;20678;-60
2022/11/21 06:28:06;;;;;;;0.87;0.87;;;4.90;96.60;4.20;95008.00;;;;5094938;28;20198;-58
2022/11/21 06:30:33;;;;;;;1.33;1.33;;;5.00;97.70;4.10;95016.00;;;;5094845;28;20571;-58
2022/11/21 06:33:01;;;;;;;0.70;0.70;;;5.00;97.30;4.20;95010.00;;;;5076959;28;20199;-57
2022/11/21 06:35:28;;;;;;;0.60;0.60;;;5.00;96.60;4.30;95009.00;;;;5094940;28;20233;-56
2022/11/21 06:37:56;;;;;;;0.50;0.50;;;5.00;95.40;4.30;95018.00;;;;5094792;28;20260;-56
2022/11/21 06:40:23;;;;;;;0.60;0.60;;;5.00;95.90;4.10;95018.00;;;;5094583;28;20291;-57
2022/11/21 06:42:50;;;;;;;0.50;0.50;;;4.90;96.00;4.00;95018.00;;;;5093661;28;20596;-56
2022/11/21 06:45:16;;;;;;;0.70;0.70;;;4.80;96.30;4.00;95028.00;;;;5094503;28;20558;-58
2022/11/21 06:47:42;;;;;;;0.67;0.67;;;4.80;97.00;3.90;95009.00;;;;5094641;28;20520;-58
2022/11/21 06:50:09;;;;;;;1.03;1.03;;;4.80;96.60;3.90;95022.00;;;;5094633;28;20245;-59
2022/11/21 06:52:36;;;;;;;0.67;0.67;;;4.80;97.20;3.90;95023.00;;;;5076905;28;20654;-59
2022/11/21 06:55:02;;;;;;;1.43;1.33;;;4.70;97.20;3.80;95034.00;;;;5094355;28;20267;-56
2022/11/21 06:57:31;;;;;;;0.63;0.63;;;4.70;97.20;3.80;95022.00;;;;5094612;28;20242;-57
2022/11/21 06:59:58;;;;;;;0.93;0.93;;;4.60;97.00;3.90;95047.00;;;;5093528;28;20690;-56
2022/11/21 07:02:26;;;;;;;0.60;0.60;;;4.70;97.00;3.80;95043.00;;;;5094313;28;20198;-57
2022/11/21 07:04:52;;;;;;;0.70;0.70;;;4.70;96.80;4.00;95044.00;;;;5094417;28;20200;-59
2022/11/21 07:07:18;;;;;;;0.70;0.70;;;4.80;96.10;4.20;95041.00;;;;5094318;28;20195;-56
2022/11/21 07:09:46;;;;;;;0.60;0.60;;;4.90;95.30;4.20;95043.00;;;;5094121;28;20534;-57
2022/11/21 07:15:00;;;;;;;0.60;0.60;;;4.90;95.10;4.10;95045.00;;;;5094211;28;20247;-58
2022/11/21 07:17:26;;;;;;;0.83;0.83;;;4.90;95.60;4.20;95046.00;;;;5094247;28;20277;-60
2022/11/21 07:19:52;;;;;;;0.60;0.60;;;5.00;95.80;4.20;95044.00;;;;5076653;28;20218;-59
2022/11/21 07:22:19;;;;;;;0.70;0.70;;;5.00;95.40;4.20;95033.00;;;;5092040;28;20226;-60
2022/11/21 07:24:45;;;;;;;1.97;1.77;;;5.00;95.20;4.10;95034.00;;;;5094259;28;20206;-58
2022/11/21 07:27:12;;;;;;;0.50;0.50;;;5.00;95.60;4.20;95027.00;;;;5093933;28;20222;-58
2022/11/21 07:29:41;;;;;;;0.83;0.83;;;5.10;96.00;4.20;95031.00;;;;5094040;28;20266;-59
2022/11/21 07:32:08;;;;;;;0.70;0.70;;;5.00;96.10;4.30;95029.00;;;;5094038;28;20198;-59
2022/11/21 07:34:34;;;;;;;1.23;1.23;;;5.20;96.50;4.30;95027.00;;;;5092838;28;20610;-60
2022/11/21 07:37:00;;;;;;;3.90;2.77;;;5.20;96.70;4.40;95023.00;;;;5093784;28;20635;-57
2022/11/21 07:39:27;;;;;;;0.60;0.60;;;5.20;96.40;4.50;95016.00;;;;5093660;28;20230;-58
2022/11/21 07:41:53;;;;;;;0.50;0.50;;;5.40;96.60;4.70;95015.00;;;;5092947;28;20248;-58
2022/11/21 07:44:20;;;;;;;0.70;0.70;;;5.40;93.80;4.60;95015.00;;;;5092680;28;20665;-58
2022/11/21 07:46:46;;;;;;;0.60;0.60;;;5.40;93.30;4.40;95014.00;;;;5093679;28;20247;-56
2022/11/21 07:49:13;;;;;;;0.50;0.50;;;5.30;93.90;4.60;95021.00;;;;5093821;28;20187;-57
2022/11/21 07:51:39;;;;;;;0.53;0.53;;;5.30;94.00;4.60;95017.00;;;;5093088;28;20497;-56
2022/11/21 07:54:06;;;;;;;0.70;0.70;;;5.40;93.70;4.60;95026.00;;;;5092603;28;20206;-58
2022/11/21 07:56:32;;;;;;;0.80;0.80;;;5.40;94.10;4.60;95021.00;;;;5092525;28;20226;-57
2022/11/21 07:58:59;;;;;;;3.17;1.23;;;5.40;94.00;4.70;95025.00;;;;5093691;28;20222;-57
2022/11/21 08:01:25;;;;;;;10.40;1.07;;;5.50;93.20;4.70;95019.00;;;;5093678;28;20195;-57
2022/11/21 08:03:52;;;;;;;0.50;0.50;;;5.40;93.70;4.80;95031.00;;;;5093907;28;20190;-58
2022/11/21 08:06:19;;;;;;;0.70;0.70;;;5.50;94.00;4.70;95034.00;;;;5093682;28;20273;-58
2022/11/21 08:08:47;;;;;;;0.70;0.70;;;5.50;93.20;4.70;95030.00;;;;5093310;28;20309;-57
2022/11/21 08:11:13;;;;;;;0.60;0.60;;;5.50;93.20;4.90;95029.00;;;;5093429;28;20202;-58
2022/11/21 08:13:39;;;;;;;0.60;0.60;;;5.60;93.20;5.10;95023.00;;;;5092740;28;20245;-58
2022/11/21 08:16:06;;;;;;;0.50;0.50;;;5.80;93.00;5.30;95031.00;;;;5093328;28;20202;-57
2022/11/21 08:18:35;;;;;;;0.60;0.60;;;6.00;93.30;5.30;95015.00;;;;5093757;28;20211;-59
2022/11/21 08:21:02;;;;;;;0.60;0.60;;;6.00;93.10;5.40;95013.00;;;;5093918;28;20262;-58
2022/11/21 08:23:30;;;;;;;0.70;0.70;;;6.20;93.40;5.60;95011.00;;;;5096229;28;20190;-58
2022/11/21 08:25:56;;;;;;;1.00;1.00;;;6.40;90.40;5.50;95018.00;;;;5093570;28;20215;-58
2022/11/21 08:28:23;;;;;;;0.80;0.80;;;6.30;90.10;5.40;95016.00;;;;5093228;28;20206;-57
2022/11/21 08:30:49;;;;;;;1.07;1.07;;;6.20;91.80;5.40;95012.00;;;;5093077;28;20219;-59
2022/11/21 08:33:15;;;;;;;0.50;0.50;;;6.20;90.50;5.30;95008.00;;;;5094927;28;20207;-58
2022/11/21 08:35:42;;;;;;;1.63;1.53;;;6.10;90.40;5.40;95009.00;;;;5096708;28;20586;-57
2022/11/21 08:38:08;;;;;;;0.60;0.60;;;6.10;89.70;5.50;95010.00;;;;5096759;28;20218;-57
2022/11/21 08:40:36;;;;;;;0.60;0.60;;;6.40;89.60;5.80;94983.00;;;;5096611;28;20231;-57
2022/11/21 08:43:05;;;;;;;0.90;0.90;;;6.50;88.70;5.60;95019.00;;;;5096589;28;20237;-59
2022/11/21 08:45:32;;;;;;;0.73;0.73;;;6.40;85.50;5.40;95011.00;;;;5096736;28;20190;-57
2022/11/21 08:48:00;;;;;;;0.90;0.90;;;6.20;86.20;5.30;95002.00;;;;5096770;28;20222;-59
2022/11/21 08:50:28;;;;;;;0.80;0.80;;;6.10;86.80;5.20;95003.00;;;;5096457;28;20253;-60
2022/11/21 08:53:00;;;;;;;1.00;1.00;;;5.90;87.80;5.60;94997.00;;;;5096279;28;20195;-59
2022/11/21 08:55:26;;;;;;;0.60;0.60;;;6.20;87.90;5.50;94986.00;;;;5096388;28;20214;-59
2022/11/21 08:57:56;;;;;;;0.93;0.77;;;6.20;88.30;5.70;94987.00;;;;5096124;28;20232;-58
2022/11/21 09:00:23;;;;;;;0.77;0.77;;;6.30;87.80;5.50;94983.00;;;;5096164;28;20246;-57
2022/11/21 09:02:51;;;;;;;0.87;0.87;;;6.20;88.00;5.60;94982.00;;;;5097662;28;20194;-58
2022/11/21 09:05:17;;;;;;;0.60;0.60;;;6.30;88.50;5.40;94986.00;;;;5096556;28;20222;-58
2022/11/21 09:07:44;;;;;;;0.80;0.80;;;6.10;90.10;5.50;94990.00;;;;5096513;28;20198;-58
2022/11/21 09:10:11;;;;;;;15.70;1.13;;;6.30;89.80;5.70;94996.00;;;;5095984;28;20495;-58
2022/11/21 09:12:37;;;;;;;0.70;0.70;;;6.40;90.70;6.00;94976.00;;;;5096169;28;20246;-59
2022/11/21 09:18:03;;;;;;;0.60;0.60;;;6.60;88.20;6.20;94977.00;;;;5095936;28;20225;-56
2022/11/21 09:20:31;;;;;;;1.53;1.43;;;;;5.80;94982.00;;;;5096084;28;20202;-57
2022/11/21 09:23:02;;;;;;;0.50;0.50;;;;;6.10;94992.00;;;;5077911;28;20690;-57
2022/11/21 09:25:31;;;;;;;0.60;0.60;;;;;6.10;94990.00;;;;5095819;28;20293;-58
2022/11/21 09:27:59;;;;;;;0.50;0.50;;;;;6.10;94992.00;;;;5095711;28;20257;-59
2022/11/21 09:30:27;;;;;;;0.60;0.60;;;;;5.90;95000.00;;;;5095684;28;20200;-57
2022/11/21 09:33:00;;;;;;;0.60;0.60;;;;;6.00;94994.00;;;;5095608;28;20629;-57
2022/11/21 09:35:27;;;;;;;0.70;0.70;;;;;6.30;94983.00;;;;5077839;28;20256;-57
2022/11/21 09:37:56;;;;;;;0.50;0.50;;;;;5.90;94973.00;;;;5095342;28;20203;-57
2022/11/21 09:40:23;;;;;;;0.70;0.70;;;;;5.90;94973.00;;;;5095366;28;20281;-59
2022/11/21 09:43:16;;;;;;;0.90;0.90;;;;;5.90;94974.00;;;;5095423;28;20202;-58
2022/11/21 09:45:47;;;;;;;0.90;0.90;;;;;6.20;94962.00;;;;5076596;28;20289;-58
2022/11/21 09:48:18;;;;;;;2.10;0.97;;;;;6.50;94960.00;;;;5077465;28;20220;-57
2022/11/21 09:50:50;;;;;;;0.70;0.70;;;;;6.40;94950.00;;;;5095737;28;20212;-57
2022/11/21 09:53:21;;;;;;;0.50;0.50;;;;;6.40;94955.00;;;;5095251;28;20655;-57
2022/11/21 09:55:53;;;;;;;0.60;0.60;;;;;6.30;94948.00;;;;5095315;28;20191;-57
2022/11/21 09:58:29;;;;;;;0.50;0.50;;;;;6.20;94954.00;;;;5095366;28;20294;-56
2022/11/21 10:00:56;;;;;;;0.90;0.90;;;;;6.30;94950.00;;;;5095374;28;20201;-57
2022/11/21 10:03:27;;;;;;;0.63;0.63;;;;;6.70;94936.00;;;;5077516;28;20226;-57
2022/11/21 10:05:57;;;;;;;2.20;1.10;;;;;6.70;94935.00;;;;5095252;28;20209;-56
2022/11/21 10:08:33;;;;;;;0.77;0.77;;;;;6.80;94936.00;;;;5095177;28;20652;-57
2022/11/21 10:11:11;;;;;;;1.10;1.10;;;;;7.00;94931.00;;;;5095127;28;20183;-57
2022/11/21 10:13:56;;;;;;;0.63;0.63;;;;;7.30;94922.00;;;;5094993;28;20254;-57
2022/11/21 10:16:31;;;;;;;0.50;0.50;;;;;6.80;94926.00;;;;5094920;28;20690;-57
2022/11/21 10:19:10;;;;;;;0.60;0.60;;;;;7.10;94918.00;;;;5095048;28;20223;-57
2022/11/21 10:22:10;;;;;;;0.70;0.70;;;;;6.90;94916.00;;;;5095183;28;20222;-57
2022/11/21 10:24:47;;;;;;;0.60;0.60;;;;;6.70;94907.00;;;;5092262;28;20661;-57
2022/11/21 10:27:17;;;;;;;0.60;0.60;;;;;6.80;94907.00;;;;5094827;28;20232;-58
2022/11/21 10:29:49;;;;;;;1.33;1.23;;;;;6.70;94898.00;;;;5094796;28;20202;-57
2022/11/21 10:32:23;;;;;;;0.60;0.60;;;;;7.10;94897.00;;;;5094783;28;20271;-57
2022/11/21 10:34:54;;;;;;;0.50;0.50;;;;;7.40;94897.00;;;;5094855;28;20629;-58
2022/11/21 10:37:31;;;;;;;0.67;0.67;;;;;7.80;94901.00;;;;5094827;28;20201;-58
2022/11/21 10:40:08;;;;;;;0.73;0.73;;;;;7.20;94890.00;;;;5094599;28;20222;-56
2022/11/21 10:42:39;;;;;;;0.67;0.67;;;;;7.10;94885.00;;;;5094841;28;20174;-58
2022/11/21 10:45:15;;;;;;;4.83;1.80;;;;;7.40;94885.00;;;;5094883;28;20222;-57
2022/11/21 10:47:43;;;;;;;0.73;0.73;;;;;7.30;94877.00;;;;5094799;28;20193;-57
2022/11/21 10:50:30;;;;;;;0.97;0.97;;;;;7.50;94862.00;;;;5094580;28;20229;-57
2022/11/21 10:55:59;;;;;;;2.47;1.00;;;;;7.50;94860.00;;;;5093292;28;20210;-57
2022/11/21 10:58:35;;;;;;;0.97;0.97;;;;;7.60;94845.00;;;;5076936;28;20226;-59
2022/11/21 11:01:02;;;;;;;4.53;1.20;;;;;8.10;94830.00;;;;5094376;28;20201;-57
2022/11/21 11:03:30;;;;;;;0.90;0.90;;;;;7.90;94833.00;;;;5094399;28;20199;-57
2022/11/21 11:05:59;;;;;;;0.50;0.50;;;;;7.80;94816.00;;;;5094374;28;20198;-58
2022/11/21 11:08:27;;;;;;;2.90;1.80;;;;;8.10;94826.00;;;;5094281;28;20207;-58
2022/11/21 11:11:03;;;;;;;1.90;1.43;;;;;8.30;94792.00;;;;5076732;28;20293;-58
2022/11/21 11:13:34;;;;;;;0.50;0.50;;;8.20;77.40;7.50;94827.00;;;;5094138;28;20225;-58
2022/11/21 11:16:15;;;;;;;0.70;0.70;;;8.00;79.60;7.30;94830.00;;;;5093948;28;20243;-57
2022/11/21 11:19:00;;;;;;;0.70;0.70;;;8.10;79.70;7.60;94829.00;;;;5093949;28;20253;-57
2022/11/21 11:21:43;;;;;;;0.60;0.60;;;7.80;80.30;7.10;94816.00;;;;5094247;28;20623;-58
2022/11/21 11:24:24;;;;;;;0.83;0.83;;;8.20;79.40;7.70;94799.00;;;;5076533;28;20356;-64
2022/11/21 11:27:00;;;;;;;0.50;0.50;;;8.60;77.60;8.60;94761.00;;;;5094299;28;20193;-62
2022/11/21 11:29:29;;;;;;;0.90;0.90;;;9.60;76.10;10.10;94741.00;;;;5094334;28;20288;-62
2022/11/21 11:32:00;;;;;;;0.77;0.77;;;10.10;69.40;10.40;94721.00;;;;5094094;28;20575;-64
2022/11/21 11:34:38;;;;;;;5.10;1.37;;;11.60;58.50;11.80;94716.00;;;;5076598;28;20226;-60
2022/11/21 11:37:13;;;;;;;0.60;0.60;;;11.30;50.60;11.10;94713.00;;;;5094335;28;20275;-58
2022/11/21 11:39:50;;;;;;;0.50;0.50;;;11.30;50.70;11.50;94712.00;;;;5094199;28;20218;-58
2022/11/21 11:49:02;;;;;;;0.60;0.60;;;13.50;44.70;15.40;94695.00;;;;5093872;28;20207;-57
2022/11/21 11:51:36;;;;;;;1.60;1.13;;;14.50;34.90;14.40;94696.00;;;;5093742;28;20289;-57
2022/11/21 11:54:12;;;;;;;0.77;0.77;;;14.10;36.60;13.50;94685.00;;;;5093732;28;20244;-56
2022/11/21 11:56:40;;;;;;;0.80;0.80;;;14.10;37.80;15.00;94689.00;;;;5093612;28;20220;-56
2022/11/21 11:59:16;;;;;;;0.60;0.60;;;15.10;36.50;15.50;94696.00;;;;5075786;28;20279;-57
2022/11/21 12:01:49;;;;;;;0.50;0.50;;;15.80;31.50;15.80;94689.00;;;;5093607;28;20197;-57
2022/11/21 12:04:19;;;;;;;0.60;0.60;;;15.80;31.90;15.80;94688.00;;;;5093370;28;20206;-57
2022/11/21 12:06:52;;;;;;;0.60;0.60;;;;;17.30;94675.00;;;;5093917;28;20590;-57
2022/11/21 12:09:31;;;;;;;0.47;0.47;;;17.60;28.10;16.20;94673.00;;;;5099990;28;20664;-57
2022/11/21 12:12:11;;;;;;;0.40;0.40;;;17.70;36.30;18.30;94669.00;;;;5100437;28;20225;-59
2022/11/21 12:18:07;;;;;;;1.13;0.70;;;17.20;26.00;16.80;94648.00;;;;5083019;28;20202;-59
2022/11/21 12:20:41;;;;;;;0.30;0.30;;;17.00;27.00;18.50;94654.00;;;;5100046;28;20202;-59
2022/11/21 12:23:12;;;;;;;0.37;0.37;;;19.40;24.00;21.30;94676.00;;;;5100320;28;20379;-60
2022/11/21 12:25:48;;;;;;;0.40;0.40;;;18.60;22.70;16.50;94648.00;;;;5099310;28;20542;-59
2022/11/21 12:28:27;;;;;;;0.43;0.43;;;16.30;27.60;15.00;94681.00;;;;5099965;28;20209;-57